Weather at Comodoro Arturo Merino Benítez International Airport

Public forecast

Using degrees Celsius for public forecast. Weather courtesy of forecast.io.

Current aviation weather report (METAR) for Comodoro Arturo Merino Benítez International Airport

Retrieved 2020/10/01 21:00 UTC (43 minutes ago):

SCEL 012100Z 21015KT CAVOK 17/05 Q1015 NOSIG

Aviation forecast (TAF) for Comodoro Arturo Merino Benítez International Airport

Retrieved 2020/10/01 18:00 UTC (4 hours ago):

TAF SCEL 011611Z 0118/0218 20012KT CAVOK TX19/0119Z TN05/0211Z BECMG 0201/0203 16004KT TEMPO 0209/0214 VRB02KT 5000 BR BECMG 0216/0218 19008KT